sensor_id;sensor_type;location;lat;lon;timestamp;P1;P4;P2;P0;N10;N4;N25;N1;N05;TS
77792;SPS30;66983;51.438;5.438;2023-02-01T00:01:55;7.94;7.69;7.20;6.25;49.86;49.85;49.76;49.11;41.94;0.57
77792;SPS30;66983;51.438;5.438;2023-02-01T00:04:21;7.04;6.82;6.39;5.55;44.30;44.29;44.21;43.64;37.28;0.57
77792;SPS30;66983;51.438;5.438;2023-02-01T00:06:47;7.58;7.30;6.77;5.78;46.16;46.14;46.05;45.36;38.57;0.61
77792;SPS30;66983;51.438;5.438;2023-02-01T00:09:13;7.52;7.20;6.55;5.46;43.61;43.59;43.48;42.67;36.01;0.64
77792;SPS30;66983;51.438;5.438;2023-02-01T00:11:39;6.83;6.54;5.96;4.97;39.69;39.67;39.58;38.84;32.80;0.60
77792;SPS30;66983;51.438;5.438;2023-02-01T00:14:05;6.71;6.39;5.77;4.74;37.82;37.80;37.70;36.91;31.02;0.62
77792;SPS30;66983;51.438;5.438;2023-02-01T00:16:31;7.41;7.03;6.30;5.11;40.81;40.79;40.67;39.75;33.29;0.63
77792;SPS30;66983;51.438;5.438;2023-02-01T00:19:04;7.42;7.04;6.27;5.06;40.39;40.37;40.25;39.29;32.84;0.64
77792;SPS30;66983;51.438;5.438;2023-02-01T00:21:41;6.86;6.53;5.88;4.82;38.49;38.47;38.37;37.55;31.54;0.62
77792;SPS30;66983;51.438;5.438;2023-02-01T00:24:08;7.40;6.99;6.17;4.91;39.15;39.13;39.01;37.99;31.60;0.65
77792;SPS30;66983;51.438;5.438;2023-02-01T00:26:36;7.64;7.20;6.32;4.97;39.71;39.69;39.55;38.46;31.89;0.69
77792;SPS30;66983;51.438;5.438;2023-02-01T00:29:09;7.47;7.03;6.15;4.81;38.37;38.35;38.21;37.12;30.72;0.67
77792;SPS30;66983;51.438;5.438;2023-02-01T00:31:38;7.34;6.92;6.08;4.79;38.20;38.18;38.05;37.01;30.69;0.67
77792;SPS30;66983;51.438;5.438;2023-02-01T00:34:04;6.50;6.15;5.47;4.40;35.14;35.12;35.02;34.17;28.53;0.66
77792;SPS30;66983;51.438;5.438;2023-02-01T00:36:30;7.12;6.73;5.96;4.75;37.91;37.89;37.77;36.80;30.64;0.65
77792;SPS30;66983;51.438;5.438;2023-02-01T00:38:56;7.16;6.71;5.84;4.53;36.15;36.13;35.99;34.92;28.81;0.64
77792;SPS30;66983;51.438;5.438;2023-02-01T00:41:21;6.82;6.43;5.66;4.46;35.63;35.61;35.49;34.53;28.66;0.63
77792;SPS30;66983;51.438;5.438;2023-02-01T00:43:47;7.31;6.87;6.01;4.70;37.52;37.50;37.37;36.30;30.04;0.64
77792;SPS30;66983;51.438;5.438;2023-02-01T00:46:16;6.73;6.31;5.47;4.22;33.66;33.64;33.51;32.48;26.74;0.67
77792;SPS30;66983;51.438;5.438;2023-02-01T00:48:43;7.12;6.68;5.82;4.50;35.96;35.94;35.80;34.73;28.65;0.67
77792;SPS30;66983;51.438;5.438;2023-02-01T00:51:11;7.66;7.17;6.20;4.76;37.97;37.95;37.80;36.60;30.09;0.68
77792;SPS30;66983;51.438;5.438;2023-02-01T00:53:39;7.54;7.04;6.07;4.62;36.91;36.89;36.74;35.54;29.15;0.70
77792;SPS30;66983;51.438;5.438;2023-02-01T00:56:05;7.72;7.22;6.23;4.77;38.07;38.04;37.89;36.68;30.13;0.70
77792;SPS30;66983;51.438;5.438;2023-02-01T00:58:32;7.93;7.40;6.36;4.83;38.55;38.52;38.36;37.09;30.38;0.68
77792;SPS30;66983;51.438;5.438;2023-02-01T01:01:06;7.83;7.25;6.10;4.45;35.49;35.46;35.28;33.88;27.36;0.71
77792;SPS30;66983;51.438;5.438;2023-02-01T01:03:36;8.60;7.92;6.57;4.66;37.21;37.18;36.97;35.34;28.24;0.74
77792;SPS30;66983;51.438;5.438;2023-02-01T01:06:05;7.61;7.04;5.93;4.34;34.66;34.63;34.46;33.11;26.76;0.70
77792;SPS30;66983;51.438;5.438;2023-02-01T01:08:34;7.57;7.02;5.94;4.38;34.99;34.96;34.79;33.48;27.14;0.70
77792;SPS30;66983;51.438;5.438;2023-02-01T01:11:05;7.35;6.82;5.78;4.28;34.15;34.13;33.97;32.70;26.54;0.69
77792;SPS30;66983;51.438;5.438;2023-02-01T01:13:39;8.36;7.70;6.39;4.54;36.27;36.24;36.04;34.46;27.55;0.71
77792;SPS30;66983;51.438;5.438;2023-02-01T01:16:06;8.55;7.86;6.52;4.62;36.89;36.86;36.66;35.02;27.97;0.71
77792;SPS30;66983;51.438;5.438;2023-02-01T01:18:34;8.71;8.04;6.71;4.83;38.58;38.55;38.35;36.74;29.52;0.71
77792;SPS30;66983;51.438;5.438;2023-02-01T01:21:01;8.48;7.81;6.48;4.60;36.70;36.67;36.47;34.85;27.85;0.74
77792;SPS30;66983;51.438;5.438;2023-02-01T01:23:30;8.11;7.50;6.29;4.57;36.48;36.45;36.27;34.80;28.05;0.72
77792;SPS30;66983;51.438;5.438;2023-02-01T01:25:56;8.32;7.67;6.39;4.58;36.59;36.56;36.37;34.82;27.93;0.74
77792;SPS30;66983;51.438;5.438;2023-02-01T01:28:21;8.37;7.75;6.53;4.78;38.19;38.16;37.98;36.50;29.51;0.73
77792;SPS30;66983;51.438;5.438;2023-02-01T01:30:47;7.90;7.33;6.20;4.57;36.50;36.47;36.30;34.92;28.31;0.72
77792;SPS30;66983;51.438;5.438;2023-02-01T01:33:13;8.15;7.59;6.49;4.87;38.90;38.87;38.70;37.36;30.49;0.68
77792;SPS30;66983;51.438;5.438;2023-02-01T01:35:38;7.95;7.40;6.33;4.76;38.00;37.98;37.81;36.50;29.80;0.69
77792;SPS30;66983;51.438;5.438;2023-02-01T01:38:04;7.88;7.35;6.31;4.78;38.14;38.11;37.95;36.68;30.01;0.68
77792;SPS30;66983;51.438;5.438;2023-02-01T01:40:30;7.95;7.39;6.28;4.67;37.28;37.25;37.08;35.73;29.05;0.70
77792;SPS30;66983;51.438;5.438;2023-02-01T01:42:56;7.45;6.94;5.94;4.48;35.72;35.70;35.54;34.32;28.03;0.69
77792;SPS30;66983;51.438;5.438;2023-02-01T01:47:53;8.74;8.06;6.73;4.84;38.60;38.57;38.37;36.75;29.50;0.70
77792;SPS30;66983;51.438;5.438;2023-02-01T01:50:24;8.00;7.43;6.29;4.65;37.13;37.10;36.92;35.54;28.83;0.68
77792;SPS30;66983;51.438;5.438;2023-02-01T01:52:54;8.29;7.72;6.60;4.96;39.57;39.54;39.37;38.00;31.01;0.69
77792;SPS30;66983;51.438;5.438;2023-02-01T01:55:24;8.14;7.55;6.40;4.73;37.79;37.76;37.59;36.18;29.36;0.70
77792;SPS30;66983;51.438;5.438;2023-02-01T01:57:57;8.24;7.67;6.54;4.88;38.99;38.96;38.79;37.41;30.47;0.69
77792;SPS30;66983;51.438;5.438;2023-02-01T02:00:29;9.07;8.43;7.18;5.35;42.68;42.65;42.45;40.92;33.29;0.71
77792;SPS30;66983;51.438;5.438;2023-02-01T02:02:59;9.14;8.50;7.24;5.40;43.06;43.03;42.84;41.29;33.61;0.71
77792;SPS30;66983;51.438;5.438;2023-02-01T02:05:47;9.04;8.40;7.13;5.29;42.22;42.19;42.00;40.45;32.86;0.72
77792;SPS30;66983;51.438;5.438;2023-02-01T02:08:17;8.67;8.05;6.84;5.08;40.58;40.55;40.36;38.88;31.60;0.70
77792;SPS30;66983;51.438;5.438;2023-02-01T02:10:46;8.21;7.70;6.69;5.18;41.36;41.33;41.18;39.94;32.93;0.67
77792;SPS30;66983;51.438;5.438;2023-02-01T02:13:32;9.25;8.61;7.37;5.54;44.20;44.17;43.98;42.45;34.65;0.69
77792;SPS30;66983;51.438;5.438;2023-02-01T02:19:18;9.72;9.05;7.72;5.77;46.06;46.03;45.82;44.19;36.01;0.70
77792;SPS30;66983;51.438;5.438;2023-02-01T02:24:50;8.58;8.06;7.03;5.46;43.61;43.58;43.42;42.15;34.81;0.66
77792;SPS30;66983;51.438;5.438;2023-02-01T02:27:59;8.95;8.44;7.43;5.88;46.91;46.88;46.72;45.47;37.76;0.64
77792;SPS30;66983;51.438;5.438;2023-02-01T02:36:21;8.56;8.13;7.29;5.93;47.30;47.28;47.14;46.09;38.61;0.62
77792;SPS30;66983;51.438;5.438;2023-02-01T02:41:38;7.97;7.60;6.86;5.65;45.09;45.07;44.95;44.02;37.02;0.62
77792;SPS30;66983;51.438;5.438;2023-02-01T02:44:53;8.67;8.21;7.30;5.86;46.77;46.75;46.61;45.47;37.94;0.65
77792;SPS30;66983;51.438;5.438;2023-02-01T02:50:59;9.81;9.19;7.95;6.10;48.71;48.68;48.49;46.97;38.62;0.68
77792;SPS30;66983;51.438;5.438;2023-02-01T02:57:06;8.76;8.23;7.19;5.60;44.69;44.67;44.50;43.21;35.71;0.68
77792;SPS30;66983;51.438;5.438;2023-02-01T02:59:57;9.41;8.75;7.46;5.57;44.46;44.43;44.23;42.65;34.73;0.72
77792;SPS30;66983;51.438;5.438;2023-02-01T03:02:46;8.65;8.09;6.97;5.32;42.49;42.46;42.29;40.92;33.58;0.68
77792;SPS30;66983;51.438;5.438;2023-02-01T03:05:33;8.62;8.06;6.96;5.33;42.53;42.51;42.33;40.98;33.66;0.67
77792;SPS30;66983;51.438;5.438;2023-02-01T03:08:04;9.28;8.70;7.56;5.84;46.63;46.60;46.42;45.02;37.10;0.68
77792;SPS30;66983;51.438;5.438;2023-02-01T03:20:57;8.84;8.15;6.81;4.90;39.08;39.05;38.85;37.21;29.88;0.71
77792;SPS30;66983;51.438;5.438;2023-02-01T03:23:30;8.89;8.24;6.97;5.13;40.98;40.95;40.75;39.20;31.76;0.69
77792;SPS30;66983;51.438;5.438;2023-02-01T03:25:59;9.06;8.32;6.88;4.85;38.74;38.71;38.49;36.74;29.28;0.73
77792;SPS30;66983;51.438;5.438;2023-02-01T03:28:28;10.04;9.20;7.55;5.25;41.93;41.89;41.64;39.65;31.42;0.76
77792;SPS30;66983;51.438;5.438;2023-02-01T03:30:58;8.43;7.78;6.50;4.67;37.31;37.28;37.09;35.53;28.54;0.72
77792;SPS30;66983;51.438;5.438;2023-02-01T03:33:26;9.02;8.31;6.91;4.93;39.33;39.30;39.09;37.39;29.93;0.73
77792;SPS30;66983;51.438;5.438;2023-02-01T03:38:52;9.05;8.29;6.79;4.70;37.50;37.47;37.24;35.42;28.02;0.76
77792;SPS30;66983;51.438;5.438;2023-02-01T03:41:41;9.08;8.29;6.72;4.56;36.43;36.39;36.16;34.27;26.88;0.76
77792;SPS30;66983;51.438;5.438;2023-02-01T03:47:10;10.18;9.19;7.23;4.61;36.76;36.71;36.42;34.08;25.97;0.80
77792;SPS30;66983;51.438;5.438;2023-02-01T03:49:43;9.42;8.54;6.79;4.42;35.30;35.26;35.00;32.90;25.34;0.79
77792;SPS30;66983;51.438;5.438;2023-02-01T03:52:14;9.71;8.79;6.99;4.56;36.37;36.33;36.06;33.90;26.11;0.80
77792;SPS30;66983;51.438;5.438;2023-02-01T03:55:02;10.61;9.56;7.48;4.71;37.56;37.52;37.21;34.72;26.30;0.82
77792;SPS30;66983;51.438;5.438;2023-02-01T03:57:31;9.72;8.78;6.92;4.41;35.17;35.13;34.85;32.62;24.87;0.81
77792;SPS30;66983;51.438;5.438;2023-02-01T04:00:14;10.69;9.57;7.36;4.44;35.41;35.36;35.03;32.40;24.01;0.87
77792;SPS30;66983;51.438;5.438;2023-02-01T04:02:44;10.31;9.21;7.04;4.17;33.28;33.24;32.91;30.32;22.26;0.88
77792;SPS30;66983;51.438;5.438;2023-02-01T04:05:09;10.55;9.41;7.16;4.20;33.55;33.50;33.17;30.49;22.26;0.88
77792;SPS30;66983;51.438;5.438;2023-02-01T04:07:38;10.29;9.20;7.05;4.21;33.56;33.52;33.20;30.63;22.57;0.86
77792;SPS30;66983;51.438;5.438;2023-02-01T04:10:03;9.49;8.51;6.57;4.00;31.91;31.87;31.58;29.27;21.80;0.86
77792;SPS30;66983;51.438;5.438;2023-02-01T04:12:29;10.43;9.34;7.19;4.35;34.68;34.64;34.31;31.75;23.56;0.87
77792;SPS30;66983;51.438;5.438;2023-02-01T04:14:55;9.81;8.84;6.93;4.36;34.80;34.76;34.47;32.17;24.38;0.81
77792;SPS30;66983;51.438;5.438;2023-02-01T04:17:20;8.54;7.71;6.08;3.88;30.97;30.93;30.69;28.73;21.91;0.80
77792;SPS30;66983;51.438;5.438;2023-02-01T04:19:46;8.97;8.07;6.29;3.92;31.27;31.23;30.97;28.84;21.74;0.84
77792;SPS30;66983;51.438;5.438;2023-02-01T04:22:11;9.31;8.38;6.56;4.12;32.87;32.83;32.55;30.37;22.99;0.83
77792;SPS30;66983;51.438;5.438;2023-02-01T04:24:37;9.73;8.73;6.77;4.16;33.18;33.14;32.84;30.49;22.82;0.86
77792;SPS30;66983;51.438;5.438;2023-02-01T04:27:03;10.32;9.21;7.05;4.18;33.39;33.34;33.02;30.43;22.36;0.86
77792;SPS30;66983;51.438;5.438;2023-02-01T04:29:29;11.29;10.08;7.70;4.55;36.31;36.26;35.90;33.05;24.24;0.87
77792;SPS30;66983;51.438;5.438;2023-02-01T04:31:55;10.71;9.56;7.30;4.32;34.47;34.42;34.09;31.39;23.02;0.87
77792;SPS30;66983;51.438;5.438;2023-02-01T04:34:20;10.39;9.27;7.05;4.13;32.96;32.91;32.58;29.93;21.84;0.88
77792;SPS30;66983;51.438;5.438;2023-02-01T04:36:47;11.25;10.05;7.70;4.59;36.60;36.55;36.20;33.38;24.58;0.87
77792;SPS30;66983;51.438;5.438;2023-02-01T04:39:13;10.22;9.12;6.97;4.13;32.97;32.93;32.61;30.04;22.05;0.87
77792;SPS30;66983;51.438;5.438;2023-02-01T04:41:39;10.24;9.15;7.00;4.16;33.20;33.15;32.83;30.26;22.25;0.88
77792;SPS30;66983;51.438;5.438;2023-02-01T04:44:04;10.75;9.59;7.31;4.31;34.37;34.32;33.98;31.25;22.87;0.88
77792;SPS30;66983;51.438;5.438;2023-02-01T04:46:30;11.45;10.20;7.72;4.47;35.68;35.63;35.26;32.31;23.41;0.90
77792;SPS30;66983;51.438;5.438;2023-02-01T04:48:56;10.72;9.54;7.22;4.17;33.24;33.19;32.85;30.07;21.75;0.90
77792;SPS30;66983;51.438;5.438;2023-02-01T04:51:21;11.15;9.91;7.49;4.30;34.30;34.25;33.89;30.99;22.35;0.90
77792;SPS30;66983;51.438;5.438;2023-02-01T04:53:47;10.66;9.45;7.06;3.95;31.49;31.44;31.09;28.24;20.03;0.92
77792;SPS30;66983;51.438;5.438;2023-02-01T04:56:12;10.79;9.65;7.39;4.41;35.22;35.17;34.83;32.14;23.69;0.86
77792;SPS30;66983;51.438;5.438;2023-02-01T04:58:38;10.09;9.08;7.08;4.40;35.14;35.09;34.79;32.40;24.41;0.85
77792;SPS30;66983;51.438;5.438;2023-02-01T05:01:04;9.46;8.50;6.62;4.11;32.78;32.74;32.46;30.21;22.73;0.84
77792;SPS30;66983;51.438;5.438;2023-02-01T05:03:31;10.63;9.47;7.19;4.19;33.41;33.36;33.02;30.30;22.03;0.88
77792;SPS30;66983;51.438;5.438;2023-02-01T05:05:58;11.28;10.05;7.63;4.44;35.42;35.37;35.01;32.12;23.34;0.89
77792;SPS30;66983;51.438;5.438;2023-02-01T05:08:25;9.85;8.87;6.93;4.34;34.60;34.55;34.26;31.94;24.13;0.81
77792;SPS30;66983;51.438;5.438;2023-02-01T05:10:52;10.11;9.10;7.13;4.48;35.79;35.75;35.45;33.08;25.06;0.83
77792;SPS30;66983;51.438;5.438;2023-02-01T05:13:18;10.84;9.71;7.49;4.54;36.26;36.22;35.88;33.23;24.71;0.86
77792;SPS30;66983;51.438;5.438;2023-02-01T05:16:02;10.97;9.83;7.60;4.63;36.94;36.90;36.56;33.89;25.26;0.86
77792;SPS30;66983;51.438;5.438;2023-02-01T05:18:28;10.39;9.36;7.34;4.63;36.93;36.89;36.58;34.16;25.90;0.83
77792;SPS30;66983;51.438;5.438;2023-02-01T05:20:53;10.63;9.56;7.47;4.66;37.20;37.16;36.84;34.33;25.91;0.84
77792;SPS30;66983;51.438;5.438;2023-02-01T05:23:19;11.46;10.26;7.91;4.78;38.17;38.12;37.77;34.95;25.95;0.85
77792;SPS30;66983;51.438;5.438;2023-02-01T05:25:44;11.21;10.06;7.80;4.78;38.13;38.08;37.74;35.03;26.19;0.84
77792;SPS30;66983;51.438;5.438;2023-02-01T05:28:10;11.15;10.07;7.95;5.09;40.62;40.57;40.25;37.71;28.81;0.80
77792;SPS30;66983;51.438;5.438;2023-02-01T05:30:35;9.26;8.41;6.73;4.45;35.49;35.45;35.20;33.18;25.72;0.77
77792;SPS30;66983;51.438;5.438;2023-02-01T05:33:01;9.89;8.97;7.17;4.72;37.69;37.65;37.38;35.21;27.25;0.78
77792;SPS30;66983;51.438;5.438;2023-02-01T05:35:27;9.34;8.47;6.77;4.45;35.55;35.51;35.25;33.20;25.69;0.79
77792;SPS30;66983;51.438;5.438;2023-02-01T05:37:53;8.98;8.18;6.59;4.43;35.33;35.29;35.05;33.15;25.88;0.76
77792;SPS30;66983;51.438;5.438;2023-02-01T05:40:19;9.70;8.85;7.17;4.86;38.79;38.75;38.49;36.47;28.59;0.78
77792;SPS30;66983;51.438;5.438;2023-02-01T05:42:44;10.00;9.05;7.20;4.69;37.46;37.42;37.14;34.91;26.89;0.80
77792;SPS30;66983;51.438;5.438;2023-02-01T05:45:10;9.81;8.89;7.07;4.62;36.84;36.80;36.53;34.35;26.48;0.80
77792;SPS30;66983;51.438;5.438;2023-02-01T05:47:36;10.38;9.41;7.49;4.89;39.02;38.98;38.69;36.38;28.05;0.81
77792;SPS30;66983;51.438;5.438;2023-02-01T05:50:02;10.17;9.24;7.41;4.91;39.17;39.13;38.86;36.65;28.45;0.79
77792;SPS30;66983;51.438;5.438;2023-02-01T05:52:29;11.02;9.93;7.78;4.90;39.07;39.03;38.70;36.13;27.37;0.85
77792;SPS30;66983;51.438;5.438;2023-02-01T05:54:54;10.80;9.75;7.69;4.91;39.21;39.17;38.86;36.39;27.77;0.83
77792;SPS30;66983;51.438;5.438;2023-02-01T05:57:20;10.35;9.40;7.51;4.94;39.43;39.38;39.10;36.83;28.50;0.79
77792;SPS30;66983;51.438;5.438;2023-02-01T05:59:45;10.69;9.67;7.68;4.98;39.73;39.68;39.38;36.99;28.43;0.81
77792;SPS30;66983;51.438;5.438;2023-02-01T06:02:12;10.32;9.32;7.37;4.74;37.82;37.77;37.48;35.14;26.90;0.81
77792;SPS30;66983;51.438;5.438;2023-02-01T06:04:38;10.24;9.28;7.39;4.82;38.45;38.41;38.12;35.84;27.63;0.81
77792;SPS30;66983;51.438;5.438;2023-02-01T06:07:04;11.47;10.35;8.16;5.20;41.49;41.45;41.12;38.48;29.34;0.82
77792;SPS30;66983;51.438;5.438;2023-02-01T06:09:33;11.66;10.51;8.23;5.18;41.32;41.27;40.93;38.20;28.94;0.83
77792;SPS30;66983;51.438;5.438;2023-02-01T06:11:59;11.34;10.26;8.15;5.28;42.17;42.13;41.81;39.26;30.18;0.81
77792;SPS30;66983;51.438;5.438;2023-02-01T06:14:26;11.18;10.21;8.31;5.67;45.23;45.19;44.90;42.60;33.49;0.77
77792;SPS30;66983;51.438;5.438;2023-02-01T06:16:52;10.69;9.74;7.88;5.32;42.46;42.42;42.14;39.89;31.22;0.78
77792;SPS30;66983;51.438;5.438;2023-02-01T06:19:20;11.64;10.57;8.44;5.55;44.32;44.27;43.95;41.40;32.03;0.81
77792;SPS30;66983;51.438;5.438;2023-02-01T06:21:46;11.95;10.84;8.66;5.69;45.42;45.37;45.04;42.42;32.81;0.82
77792;SPS30;66983;51.438;5.438;2023-02-01T06:24:12;11.14;10.14;8.15;5.44;43.43;43.39;43.09;40.70;31.69;0.80
77792;SPS30;66983;51.438;5.438;2023-02-01T06:26:38;10.77;9.86;8.09;5.62;44.84;44.80;44.53;42.38;33.57;0.76
77792;SPS30;66983;51.438;5.438;2023-02-01T06:29:05;11.72;10.70;8.71;5.95;47.47;47.42;47.12;44.71;35.17;0.76
77792;SPS30;66983;51.438;5.438;2023-02-01T06:31:32;11.14;10.12;8.13;5.40;43.08;43.03;42.73;40.33;31.34;0.79
77792;SPS30;66983;51.438;5.438;2023-02-01T06:33:58;10.94;9.96;8.03;5.38;42.94;42.89;42.60;40.28;31.42;0.77
77792;SPS30;66983;51.438;5.438;2023-02-01T06:36:23;11.52;10.48;8.42;5.61;44.75;44.71;44.40;41.92;32.62;0.78
77792;SPS30;66983;51.438;5.438;2023-02-01T06:38:49;10.24;9.35;7.60;5.18;41.37;41.33;41.06;38.95;30.62;0.76
77792;SPS30;66983;51.438;5.438;2023-02-01T06:41:15;10.50;9.56;7.73;5.21;41.57;41.53;41.26;39.04;30.53;0.77
77792;SPS30;66983;51.438;5.438;2023-02-01T06:43:41;10.85;9.86;7.91;5.25;41.90;41.85;41.56;39.21;30.46;0.78
77792;SPS30;66983;51.438;5.438;2023-02-01T06:46:07;10.19;9.29;7.50;5.05;40.33;40.29;40.02;37.87;29.60;0.79
77792;SPS30;66983;51.438;5.438;2023-02-01T06:48:36;11.50;10.47;8.44;5.65;45.12;45.07;44.77;42.32;33.01;0.79
77792;SPS30;66983;51.438;5.438;2023-02-01T06:51:02;11.54;10.47;8.35;5.47;43.69;43.64;43.32;40.78;31.50;0.80
77792;SPS30;66983;51.438;5.438;2023-02-01T06:53:28;12.41;11.22;8.88;5.72;45.68;45.63;45.27;42.47;32.55;0.81
77792;SPS30;66983;51.438;5.438;2023-02-01T06:55:58;10.64;9.65;7.71;5.07;40.46;40.42;40.13;37.79;29.23;0.79
77792;SPS30;66983;51.438;5.438;2023-02-01T06:58:30;10.62;9.66;7.78;5.20;41.52;41.48;41.19;38.92;30.34;0.77
77792;SPS30;66983;51.438;5.438;2023-02-01T07:00:57;11.39;10.27;8.07;5.12;40.82;40.77;40.44;37.80;28.74;0.82
77792;SPS30;66983;51.438;5.438;2023-02-01T07:03:23;11.16;10.05;7.85;4.90;39.10;39.06;38.72;36.09;27.24;0.83
77792;SPS30;66983;51.438;5.438;2023-02-01T07:05:48;11.65;10.48;8.18;5.10;40.68;40.63;40.29;37.53;28.30;0.84
77792;SPS30;66983;51.438;5.438;2023-02-01T07:08:14;12.99;11.62;8.93;5.36;42.76;42.70;42.30;39.08;28.90;0.86
77792;SPS30;66983;51.438;5.438;2023-02-01T07:10:40;12.11;10.79;8.20;4.79;38.21;38.15;37.77;34.67;25.24;0.88
77792;SPS30;66983;51.438;5.438;2023-02-01T07:13:05;12.00;10.74;8.27;4.99;39.84;39.79;39.42;36.46;27.04;0.86
77792;SPS30;66983;51.438;5.438;2023-02-01T07:15:31;11.34;10.16;7.82;4.72;37.66;37.61;37.26;34.47;25.56;0.85
77792;SPS30;66983;51.438;5.438;2023-02-01T07:17:57;11.78;10.60;8.27;5.16;41.15;41.10;40.76;37.97;28.64;0.83
77792;SPS30;66983;51.438;5.438;2023-02-01T07:20:22;11.32;10.20;8.00;5.04;40.20;40.16;39.82;37.18;28.19;0.83
77792;SPS30;66983;51.438;5.438;2023-02-01T07:22:48;11.56;10.40;8.12;5.07;40.44;40.39;40.05;37.32;28.16;0.83
77792;SPS30;66983;51.438;5.438;2023-02-01T07:25:20;11.25;10.13;7.91;4.94;39.42;39.38;39.04;36.38;27.47;0.85
77792;SPS30;66983;51.438;5.438;2023-02-01T07:27:46;11.74;10.47;7.97;4.68;37.38;37.33;36.95;33.97;24.82;0.88
77792;SPS30;66983;51.438;5.438;2023-02-01T07:30:12;11.77;10.58;8.24;5.10;40.71;40.66;40.31;37.50;28.19;0.82
77792;SPS30;66983;51.438;5.438;2023-02-01T07:32:37;11.39;10.28;8.09;5.15;41.13;41.08;40.75;38.13;29.06;0.81
77792;SPS30;66983;51.438;5.438;2023-02-01T07:35:03;11.95;10.79;8.50;5.42;43.23;43.18;42.83;40.09;30.56;0.81
77792;SPS30;66983;51.438;5.438;2023-02-01T07:37:29;10.64;9.64;7.65;4.96;39.60;39.56;39.26;36.88;28.35;0.79
77792;SPS30;66983;51.438;5.438;2023-02-01T07:39:55;11.54;10.38;8.07;5.00;39.90;39.86;39.51;36.75;27.63;0.83
77792;SPS30;66983;51.438;5.438;2023-02-01T07:42:21;10.78;9.77;7.76;5.05;40.28;40.24;39.93;37.53;28.88;0.79
77792;SPS30;66983;51.438;5.438;2023-02-01T07:44:47;9.85;8.96;7.21;4.82;38.50;38.47;38.20;36.10;28.14;0.77
77792;SPS30;66983;51.438;5.438;2023-02-01T07:47:12;10.10;9.14;7.26;4.71;37.60;37.56;37.27;35.01;26.92;0.80
77792;SPS30;66983;51.438;5.438;2023-02-01T07:49:38;11.25;10.22;8.18;5.41;43.14;43.10;42.79;40.34;31.27;0.78
77792;SPS30;66983;51.438;5.438;2023-02-01T07:52:03;10.63;9.67;7.77;5.18;41.35;41.31;41.02;38.74;30.16;0.78
77792;SPS30;66983;51.438;5.438;2023-02-01T07:54:29;9.62;8.77;7.10;4.80;38.34;38.31;38.05;36.04;28.23;0.77
77792;SPS30;66983;51.438;5.438;2023-02-01T07:56:54;10.44;9.48;7.60;5.02;40.08;40.04;39.76;37.48;29.07;0.77
77792;SPS30;66983;51.438;5.438;2023-02-01T07:59:20;11.58;10.49;8.34;5.43;43.35;43.30;42.98;40.40;31.11;0.78
77792;SPS30;66983;51.438;5.438;2023-02-01T08:01:46;10.98;10.01;8.11;5.49;43.79;43.75;43.46;41.16;32.24;0.77
77792;SPS30;66983;51.438;5.438;2023-02-01T08:04:12;11.34;10.28;8.20;5.37;42.85;42.80;42.49;39.99;30.88;0.79
77792;SPS30;66983;51.438;5.438;2023-02-01T08:06:38;10.93;9.93;7.95;5.25;41.92;41.88;41.58;39.20;30.39;0.79
77792;SPS30;66983;51.438;5.438;2023-02-01T08:09:05;12.31;11.17;8.93;5.88;46.90;46.85;46.51;43.82;33.91;0.79
77792;SPS30;66983;51.438;5.438;2023-02-01T08:11:33;11.88;10.74;8.48;5.44;43.43;43.38;43.04;40.33;30.84;0.81
77792;SPS30;66983;51.438;5.438;2023-02-01T08:14:01;11.63;10.53;8.36;5.41;43.19;43.14;42.82;40.20;30.89;0.77
77792;SPS30;66983;51.438;5.438;2023-02-01T08:16:27;10.85;9.87;7.95;5.32;42.48;42.44;42.15;39.83;31.06;0.77
77792;SPS30;66983;51.438;5.438;2023-02-01T08:18:53;11.32;10.28;8.23;5.44;43.41;43.36;43.05;40.59;31.47;0.77
77792;SPS30;66983;51.438;5.438;2023-02-01T08:21:20;10.78;9.81;7.91;5.30;42.29;42.25;41.96;39.67;30.94;0.76
77792;SPS30;66983;51.438;5.438;2023-02-01T08:23:48;10.78;9.84;7.99;5.44;43.41;43.37;43.08;40.85;32.08;0.75
77792;SPS30;66983;51.438;5.438;2023-02-01T08:26:18;9.86;9.09;7.59;5.46;43.56;43.52;43.29;41.47;33.30;0.71
77792;SPS30;66983;51.438;5.438;2023-02-01T08:28:51;10.20;9.40;7.82;5.58;44.57;44.54;44.30;42.38;33.95;0.73
77792;SPS30;66983;51.438;5.438;2023-02-01T08:31:19;10.70;9.78;7.98;5.47;43.69;43.65;43.37;41.19;32.46;0.76
77792;SPS30;66983;51.438;5.438;2023-02-01T08:33:48;12.02;10.90;8.69;5.68;45.36;45.32;44.98;42.32;32.67;0.80
77792;SPS30;66983;51.438;5.438;2023-02-01T08:36:16;11.85;10.72;8.50;5.49;43.81;43.77;43.43;40.76;31.28;0.80
77792;SPS30;66983;51.438;5.438;2023-02-01T08:38:42;11.78;10.69;8.56;5.65;45.12;45.08;44.75;42.19;32.70;0.79
77792;SPS30;66983;51.438;5.438;2023-02-01T08:41:09;11.22;10.18;8.13;5.35;42.71;42.67;42.36;39.90;30.88;0.79
77792;SPS30;66983;51.438;5.438;2023-02-01T08:43:37;12.15;11.00;8.72;5.64;45.01;44.96;44.62;41.89;32.16;0.82
77792;SPS30;66983;51.438;5.438;2023-02-01T08:46:03;12.46;11.28;8.95;5.80;46.30;46.25;45.90;43.11;33.13;0.80
77792;SPS30;66983;51.438;5.438;2023-02-01T08:48:30;11.91;10.80;8.61;5.64;45.00;44.95;44.62;41.99;32.42;0.79
77792;SPS30;66983;51.438;5.438;2023-02-01T08:50:57;10.66;9.72;7.88;5.35;42.68;42.64;42.36;40.14;31.48;0.77
77792;SPS30;66983;51.438;5.438;2023-02-01T08:53:25;10.80;9.87;8.02;5.48;43.72;43.68;43.40;41.18;32.38;0.76
77792;SPS30;66983;51.438;5.438;2023-02-01T08:55:51;11.04;10.11;8.28;5.74;45.85;45.81;45.53;43.32;34.29;0.75
77792;SPS30;66983;51.438;5.438;2023-02-01T08:58:16;10.38;9.58;7.99;5.75;45.87;45.83;45.59;43.67;35.06;0.74
77792;SPS30;66983;51.438;5.438;2023-02-01T09:00:42;9.96;9.21;7.74;5.63;44.92;44.88;44.66;42.86;34.57;0.72
77792;SPS30;66983;51.438;5.438;2023-02-01T09:03:10;11.80;10.94;9.25;6.81;54.38;54.34;54.08;52.01;42.14;0.70
77792;SPS30;66983;51.438;5.438;2023-02-01T09:05:37;9.06;8.35;6.96;4.99;39.84;39.81;39.60;37.91;30.41;0.73
77792;SPS30;66983;51.438;5.438;2023-02-01T09:08:03;11.01;10.11;8.33;5.84;46.63;46.59;46.32;44.16;35.12;0.75
77792;SPS30;66983;51.438;5.438;2023-02-01T09:10:29;9.82;8.96;7.27;4.94;39.41;39.37;39.12;37.07;29.09;0.78
77792;SPS30;66983;51.438;5.438;2023-02-01T09:12:54;10.57;9.53;7.48;4.73;37.72;37.68;37.37;34.91;26.51;0.84
77792;SPS30;66983;51.438;5.438;2023-02-01T09:15:20;11.38;10.20;7.86;4.75;37.91;37.86;37.51;34.71;25.77;0.86
77792;SPS30;66983;51.438;5.438;2023-02-01T09:17:45;11.25;10.07;7.76;4.68;37.34;37.29;36.95;34.17;25.34;0.84
77792;SPS30;66983;51.438;5.438;2023-02-01T09:20:11;10.57;9.45;7.25;4.34;34.60;34.56;34.23;31.59;23.31;0.85
77792;SPS30;66983;51.438;5.438;2023-02-01T09:22:37;10.06;8.96;6.81;3.98;31.74;31.69;31.37;28.80;20.97;0.87
77792;SPS30;66983;51.438;5.438;2023-02-01T09:25:04;10.25;9.19;7.10;4.31;34.43;34.39;34.07;31.57;23.51;0.84
77792;SPS30;66983;51.438;5.438;2023-02-01T09:27:30;9.94;8.90;6.87;4.16;33.22;33.18;32.88;30.44;22.63;0.83
77792;SPS30;66983;51.438;5.438;2023-02-01T09:29:56;10.41;9.32;7.17;4.32;34.49;34.44;34.12;31.55;23.38;0.85
77792;SPS30;66983;51.438;5.438;2023-02-01T09:32:21;10.73;9.56;7.27;4.24;33.83;33.78;33.44;30.70;22.34;0.88
77792;SPS30;66983;51.438;5.438;2023-02-01T09:34:49;10.40;9.27;7.05;4.13;32.93;32.88;32.55;29.90;21.80;0.87
77792;SPS30;66983;51.438;5.438;2023-02-01T09:37:15;10.37;9.22;6.96;4.00;31.88;31.83;31.50;28.80;20.76;0.89
77792;SPS30;66983;51.438;5.438;2023-02-01T09:39:41;10.30;9.16;6.92;3.98;31.79;31.75;31.41;28.74;20.75;0.89
77792;SPS30;66983;51.438;5.438;2023-02-01T09:42:14;10.38;9.25;7.02;4.09;32.64;32.59;32.26;29.60;21.53;0.88
77792;SPS30;66983;51.438;5.438;2023-02-01T09:47:35;11.15;9.88;7.37;4.10;32.70;32.64;32.27;29.28;20.70;0.92
77792;SPS30;66983;51.438;5.438;2023-02-01T09:50:14;10.53;9.36;7.06;4.04;32.27;32.22;31.87;29.13;20.97;0.89
77792;SPS30;66983;51.438;5.438;2023-02-01T09:52:52;10.34;9.23;7.04;4.16;33.17;33.13;32.80;30.19;22.12;0.88
77792;SPS30;66983;51.438;5.438;2023-02-01T09:55:27;9.46;8.45;6.47;3.85;30.69;30.65;30.36;27.99;20.59;0.87